sensor_id;sensor_type;location;lat;lon;timestamp;pressure;altitude;pressure_sealevel;temperature;humidity
5298;BME280;14738;42.668;23.250;2023-03-14T00:01:53;48576.91;;;-141.90;60.17
5298;BME280;14738;42.668;23.250;2023-03-14T00:04:19;48533.25;;;-141.90;60.06
5298;BME280;14738;42.668;23.250;2023-03-14T00:06:44;48553.09;;;-141.90;60.52
5298;BME280;14738;42.668;23.250;2023-03-14T00:09:12;48565.00;;;-141.90;61.22
5298;BME280;14738;42.668;23.250;2023-03-14T00:11:37;48535.22;;;-141.90;61.47
5298;BME280;14738;42.668;23.250;2023-03-14T00:14:03;48505.44;;;-141.90;62.71
5298;BME280;14738;42.668;23.250;2023-03-14T00:16:28;48580.88;;;-141.90;63.26
5298;BME280;14738;42.668;23.250;2023-03-14T00:18:54;48567.00;;;-141.90;63.22
5298;BME280;14738;42.668;23.250;2023-03-14T00:21:19;48525.31;;;-141.90;63.30
5298;BME280;14738;42.668;23.250;2023-03-14T00:23:45;48576.91;;;-141.90;62.98
5298;BME280;14738;42.668;23.250;2023-03-14T00:26:13;48576.91;;;-141.90;63.54
5298;BME280;14738;42.668;23.250;2023-03-14T00:28:40;48568.97;;;-141.90;62.43
5298;BME280;14738;42.668;23.250;2023-03-14T00:31:07;48568.97;;;-141.90;62.70
5298;BME280;14738;42.668;23.250;2023-03-14T00:33:33;48572.94;;;-141.90;63.54
5298;BME280;14738;42.668;23.250;2023-03-14T00:36:01;48578.91;;;-141.90;64.60
5298;BME280;14738;42.668;23.250;2023-03-14T00:38:27;48541.19;;;-141.90;65.07
5298;BME280;14738;42.668;23.250;2023-03-14T00:40:53;48551.09;;;-141.90;64.81
5298;BME280;14738;42.668;23.250;2023-03-14T00:43:19;48561.03;;;-141.90;64.97
5298;BME280;14738;42.668;23.250;2023-03-14T00:45:49;48565.00;;;-141.90;65.86
5298;BME280;14738;42.668;23.250;2023-03-14T00:48:19;48576.91;;;-141.90;67.02
5298;BME280;14738;42.668;23.250;2023-03-14T00:50:45;48537.22;;;-141.90;66.55
5298;BME280;14738;42.668;23.250;2023-03-14T00:53:11;48570.97;;;-141.90;66.75
5298;BME280;14738;42.668;23.250;2023-03-14T00:55:39;48572.94;;;-141.90;66.68
5298;BME280;14738;42.668;23.250;2023-03-14T00:58:05;48537.22;;;-141.90;66.86
5298;BME280;14738;42.668;23.250;2023-03-14T01:00:31;48580.88;;;-141.90;65.71
5298;BME280;14738;42.668;23.250;2023-03-14T01:02:57;48596.78;;;-141.90;66.39
5298;BME280;14738;42.668;23.250;2023-03-14T01:05:23;48529.28;;;-141.90;65.07
5298;BME280;14738;42.668;23.250;2023-03-14T01:07:49;48547.13;;;-141.90;64.39
5298;BME280;14738;42.668;23.250;2023-03-14T01:10:15;48541.19;;;-141.90;66.30
5298;BME280;14738;42.668;23.250;2023-03-14T01:12:40;48580.88;;;-141.90;66.81
5298;BME280;14738;42.668;23.250;2023-03-14T01:15:06;48572.94;;;-141.90;67.48
5298;BME280;14738;42.668;23.250;2023-03-14T01:17:32;48567.00;;;-141.90;69.77
5298;BME280;14738;42.668;23.250;2023-03-14T01:19:59;48565.00;;;-141.90;69.94
5298;BME280;14738;42.668;23.250;2023-03-14T01:22:25;48568.97;;;-141.90;70.42
5298;BME280;14738;42.668;23.250;2023-03-14T01:24:50;48567.00;;;-141.90;76.26
5298;BME280;14738;42.668;23.250;2023-03-14T01:27:16;48572.94;;;-141.90;71.83
5298;BME280;14738;42.668;23.250;2023-03-14T01:29:44;48553.09;;;-141.90;66.88
5298;BME280;14738;42.668;23.250;2023-03-14T01:32:09;48551.09;;;-141.90;66.33
5298;BME280;14738;42.668;23.250;2023-03-14T01:34:34;48584.84;;;-141.90;67.54
5298;BME280;14738;42.668;23.250;2023-03-14T01:37:00;48590.81;;;-141.90;69.08
5298;BME280;14738;42.668;23.250;2023-03-14T01:39:25;48584.84;;;-141.90;67.48
5298;BME280;14738;42.668;23.250;2023-03-14T01:41:51;48580.88;;;-141.90;66.30
5298;BME280;14738;42.668;23.250;2023-03-14T01:44:16;48565.00;;;-141.90;66.64
5298;BME280;14738;42.668;23.250;2023-03-14T01:46:43;48568.97;;;-141.90;67.28
5298;BME280;14738;42.668;23.250;2023-03-14T01:51:55;48588.84;;;-141.90;70.98
5298;BME280;14738;42.668;23.250;2023-03-14T01:54:32;48557.06;;;-141.90;71.45
5298;BME280;14738;42.668;23.250;2023-03-14T01:59:34;48537.22;;;-141.90;71.17
5298;BME280;14738;42.668;23.250;2023-03-14T02:02:01;48590.81;;;-141.90;70.63
5298;BME280;14738;42.668;23.250;2023-03-14T02:04:30;48582.88;;;-141.90;70.53
5298;BME280;14738;42.668;23.250;2023-03-14T02:07:09;48586.84;;;-141.90;71.05
5298;BME280;14738;42.668;23.250;2023-03-14T02:09:38;48543.16;;;-141.90;72.52
5298;BME280;14738;42.668;23.250;2023-03-14T02:12:05;48557.06;;;-141.90;72.26
5298;BME280;14738;42.668;23.250;2023-03-14T02:14:34;48596.78;;;-141.90;74.48
5298;BME280;14738;42.668;23.250;2023-03-14T02:17:01;48572.94;;;-141.90;74.64
5298;BME280;14738;42.668;23.250;2023-03-14T02:19:48;48614.63;;;-141.90;73.08
5298;BME280;14738;42.668;23.250;2023-03-14T02:22:15;48612.66;;;-141.90;72.89
5298;BME280;14738;42.668;23.250;2023-03-14T02:27:37;48568.97;;;-141.90;74.83
5298;BME280;14738;42.668;23.250;2023-03-14T02:30:35;48596.78;;;-141.90;73.89
5298;BME280;14738;42.668;23.250;2023-03-14T02:33:05;48574.94;;;-141.90;74.04
5298;BME280;14738;42.668;23.250;2023-03-14T02:35:59;48616.63;;;-141.90;75.17
5298;BME280;14738;42.668;23.250;2023-03-14T02:38:35;48578.91;;;-141.90;80.68
5298;BME280;14738;42.668;23.250;2023-03-14T02:41:03;48551.09;;;-141.90;78.24
5298;BME280;14738;42.668;23.250;2023-03-14T02:43:29;48596.78;;;-141.90;79.03
5298;BME280;14738;42.668;23.250;2023-03-14T02:45:54;48580.88;;;-141.90;86.16
5298;BME280;14738;42.668;23.250;2023-03-14T02:48:28;48555.09;;;-141.90;85.83
5298;BME280;14738;42.668;23.250;2023-03-14T02:50:57;48586.84;;;-141.90;83.12
5298;BME280;14738;42.668;23.250;2023-03-14T02:53:32;48592.81;;;-141.90;79.80
5298;BME280;14738;42.668;23.250;2023-03-14T02:55:59;48568.97;;;-141.90;76.20
5298;BME280;14738;42.668;23.250;2023-03-14T02:58:26;48580.88;;;-141.90;73.23
5298;BME280;14738;42.668;23.250;2023-03-14T03:00:52;48567.00;;;-141.90;71.70
5298;BME280;14738;42.668;23.250;2023-03-14T03:03:18;48580.88;;;-141.90;70.95
5298;BME280;14738;42.668;23.250;2023-03-14T03:05:49;48576.91;;;-141.90;71.37
5298;BME280;14738;42.668;23.250;2023-03-14T03:08:16;48572.94;;;-141.90;69.61
5298;BME280;14738;42.668;23.250;2023-03-14T03:10:41;48588.84;;;-141.90;70.38
5298;BME280;14738;42.668;23.250;2023-03-14T03:13:07;48572.94;;;-141.90;69.97
5298;BME280;14738;42.668;23.250;2023-03-14T03:15:32;48608.69;;;-141.90;68.27
5298;BME280;14738;42.668;23.250;2023-03-14T03:17:58;48561.03;;;-141.90;68.00
5298;BME280;14738;42.668;23.250;2023-03-14T03:20:23;48568.97;;;-141.90;65.41
5298;BME280;14738;42.668;23.250;2023-03-14T03:22:49;48567.00;;;-141.90;64.84
5298;BME280;14738;42.668;23.250;2023-03-14T03:25:15;48582.88;;;-141.90;65.77
5298;BME280;14738;42.668;23.250;2023-03-14T03:27:40;48590.81;;;-141.90;66.67
5298;BME280;14738;42.668;23.250;2023-03-14T03:30:07;48572.94;;;-141.90;68.93
5298;BME280;14738;42.668;23.250;2023-03-14T03:32:32;48588.84;;;-141.90;72.83
5298;BME280;14738;42.668;23.250;2023-03-14T03:34:58;48594.78;;;-141.90;73.68
5298;BME280;14738;42.668;23.250;2023-03-14T03:37:23;48561.03;;;-141.90;77.11
5298;BME280;14738;42.668;23.250;2023-03-14T03:39:55;48580.88;;;-141.90;76.13
5298;BME280;14738;42.668;23.250;2023-03-14T03:42:20;48563.03;;;-141.90;75.63
5298;BME280;14738;42.668;23.250;2023-03-14T03:44:46;48592.81;;;-141.90;71.76
5298;BME280;14738;42.668;23.250;2023-03-14T03:47:12;48565.00;;;-141.90;72.00
5298;BME280;14738;42.668;23.250;2023-03-14T03:49:37;48582.88;;;-141.90;70.94
5298;BME280;14738;42.668;23.250;2023-03-14T03:52:03;48596.78;;;-141.90;71.76
5298;BME280;14738;42.668;23.250;2023-03-14T03:54:29;48594.78;;;-141.90;71.42
5298;BME280;14738;42.668;23.250;2023-03-14T03:56:55;48608.69;;;-141.90;70.82
5298;BME280;14738;42.668;23.250;2023-03-14T03:59:20;48574.94;;;-141.90;73.34
5298;BME280;14738;42.668;23.250;2023-03-14T04:01:46;48565.00;;;-141.90;71.68
5298;BME280;14738;42.668;23.250;2023-03-14T04:04:15;48584.84;;;-141.90;73.99
5298;BME280;14738;42.668;23.250;2023-03-14T04:06:40;48632.50;;;-141.90;73.15
5298;BME280;14738;42.668;23.250;2023-03-14T04:09:08;48608.69;;;-141.90;73.28
5298;BME280;14738;42.668;23.250;2023-03-14T04:11:33;48592.81;;;-141.90;74.44
5298;BME280;14738;42.668;23.250;2023-03-14T04:13:59;48527.28;;;-141.90;77.17
5298;BME280;14738;42.668;23.250;2023-03-14T04:16:25;48588.84;;;-141.90;77.25
5298;BME280;14738;42.668;23.250;2023-03-14T04:18:51;48592.81;;;-141.90;82.80
5298;BME280;14738;42.668;23.250;2023-03-14T04:21:17;48586.84;;;-141.90;87.20
5298;BME280;14738;42.668;23.250;2023-03-14T04:23:43;48580.88;;;-141.90;89.21
5298;BME280;14738;42.668;23.250;2023-03-14T04:26:08;48580.88;;;-141.90;93.56
5298;BME280;14738;42.668;23.250;2023-03-14T04:28:34;48568.97;;;-141.90;97.96
5298;BME280;14738;42.668;23.250;2023-03-14T04:31:12;48576.91;;;-141.90;100.00
5298;BME280;14738;42.668;23.250;2023-03-14T04:33:38;48586.84;;;-141.90;94.63
5298;BME280;14738;42.668;23.250;2023-03-14T04:36:07;48592.81;;;-141.90;90.15
5298;BME280;14738;42.668;23.250;2023-03-14T04:38:33;48580.88;;;-141.90;88.27
5298;BME280;14738;42.668;23.250;2023-03-14T04:40:59;48592.81;;;-141.90;85.50
5298;BME280;14738;42.668;23.250;2023-03-14T04:46:34;48596.78;;;-141.90;100.00
5298;BME280;14738;42.668;23.250;2023-03-14T04:48:59;48592.81;;;-141.90;100.00
5298;BME280;14738;42.668;23.250;2023-03-14T04:51:25;48549.13;;;-141.90;100.00
5298;BME280;14738;42.668;23.250;2023-03-14T04:53:53;48600.75;;;-141.90;97.35
5298;BME280;14738;42.668;23.250;2023-03-14T04:56:19;48549.13;;;-141.90;91.48
5298;BME280;14738;42.668;23.250;2023-03-14T04:58:44;48568.97;;;-141.90;84.07
5298;BME280;14738;42.668;23.250;2023-03-14T05:01:09;48565.00;;;-141.90;81.05
5298;BME280;14738;42.668;23.250;2023-03-14T05:03:35;48592.81;;;-141.90;79.61
5298;BME280;14738;42.668;23.250;2023-03-14T05:06:04;48565.00;;;-141.90;74.80
5298;BME280;14738;42.668;23.250;2023-03-14T05:08:30;48549.13;;;-141.90;72.96
5298;BME280;14738;42.668;23.250;2023-03-14T05:10:56;48565.00;;;-141.90;72.63
5298;BME280;14738;42.668;23.250;2023-03-14T05:13:22;48551.09;;;-141.90;73.88
5298;BME280;14738;42.668;23.250;2023-03-14T05:15:49;48523.31;;;-141.90;65.74
5298;BME280;14738;42.668;23.250;2023-03-14T05:18:16;48501.47;;;-141.90;52.20
5298;BME280;14738;42.668;23.250;2023-03-14T05:20:41;48469.72;;;-141.90;45.72
5298;BME280;14738;42.668;23.250;2023-03-14T05:23:08;48424.06;;;-141.90;43.35
5298;BME280;14738;42.668;23.250;2023-03-14T05:25:34;48437.94;;;-141.90;39.74
5298;BME280;14738;42.668;23.250;2023-03-14T05:27:59;48457.81;;;-141.90;37.53
5298;BME280;14738;42.668;23.250;2023-03-14T05:30:25;48441.91;;;-141.90;35.02
5298;BME280;14738;42.668;23.250;2023-03-14T05:32:51;48408.16;;;-141.90;33.19
5298;BME280;14738;42.668;23.250;2023-03-14T05:35:16;48449.84;;;-141.90;32.00
5298;BME280;14738;42.668;23.250;2023-03-14T05:37:42;48453.81;;;-141.90;30.49
5298;BME280;14738;42.668;23.250;2023-03-14T05:40:08;48404.19;;;-141.90;29.96
5298;BME280;14738;42.668;23.250;2023-03-14T05:42:34;48422.06;;;-141.90;29.64
5298;BME280;14738;42.668;23.250;2023-03-14T05:45:00;48394.28;;;-141.90;28.92
5298;BME280;14738;42.668;23.250;2023-03-14T05:47:25;48414.13;;;-141.90;28.73
5298;BME280;14738;42.668;23.250;2023-03-14T05:49:51;48416.09;;;-141.90;28.69
5298;BME280;14738;42.668;23.250;2023-03-14T05:52:16;48410.16;;;-141.90;29.13
5298;BME280;14738;42.668;23.250;2023-03-14T05:54:42;48418.09;;;-141.90;30.22
5298;BME280;14738;42.668;23.250;2023-03-14T05:57:07;48396.25;;;-141.90;30.28
5298;BME280;14738;42.668;23.250;2023-03-14T05:59:33;48402.22;;;-141.90;31.19
5298;BME280;14738;42.668;23.250;2023-03-14T06:01:58;48408.16;;;-141.90;32.06
5298;BME280;14738;42.668;23.250;2023-03-14T06:04:24;48404.19;;;-141.90;32.80
5298;BME280;14738;42.668;23.250;2023-03-14T06:06:50;48416.09;;;-141.90;32.85
5298;BME280;14738;42.668;23.250;2023-03-14T06:09:25;48400.22;;;-141.90;33.13
5298;BME280;14738;42.668;23.250;2023-03-14T06:11:53;48394.28;;;-141.90;31.97
5298;BME280;14738;42.668;23.250;2023-03-14T06:14:19;48410.16;;;-141.90;32.25
5298;BME280;14738;42.668;23.250;2023-03-14T06:16:44;48449.84;;;-141.90;32.30
5298;BME280;14738;42.668;23.250;2023-03-14T06:19:10;48414.13;;;-141.90;32.38
5298;BME280;14738;42.668;23.250;2023-03-14T06:21:35;48412.13;;;-141.90;31.96
5298;BME280;14738;42.668;23.250;2023-03-14T06:24:00;48418.09;;;-141.90;30.14
5298;BME280;14738;42.668;23.250;2023-03-14T06:26:26;48416.09;;;-141.90;28.60
5298;BME280;14738;42.668;23.250;2023-03-14T06:28:51;48394.28;;;-141.90;28.46
5298;BME280;14738;42.668;23.250;2023-03-14T06:31:18;48410.16;;;-141.90;27.80
5298;BME280;14738;42.668;23.250;2023-03-14T06:33:44;48432.00;;;-141.90;28.03
5298;BME280;14738;42.668;23.250;2023-03-14T06:36:09;48398.25;;;-141.90;28.68
5298;BME280;14738;42.668;23.250;2023-03-14T06:38:35;48433.97;;;-141.90;27.40
5298;BME280;14738;42.668;23.250;2023-03-14T06:41:07;48414.13;;;-141.90;28.73
5298;BME280;14738;42.668;23.250;2023-03-14T06:43:33;48392.28;;;-141.90;29.31
5298;BME280;14738;42.668;23.250;2023-03-14T06:45:59;48430.00;;;-141.90;28.98
5298;BME280;14738;42.668;23.250;2023-03-14T06:48:24;48390.31;;;-141.90;28.86
5298;BME280;14738;42.668;23.250;2023-03-14T06:50:50;48420.09;;;-141.90;27.99
5298;BME280;14738;42.668;23.250;2023-03-14T06:53:15;48426.03;;;-141.90;27.43
5298;BME280;14738;42.668;23.250;2023-03-14T06:55:41;48392.28;;;-141.90;26.95
5298;BME280;14738;42.668;23.250;2023-03-14T06:58:08;48394.28;;;-141.90;28.86
5298;BME280;14738;42.668;23.250;2023-03-14T07:00:34;48392.28;;;-141.90;29.31
5298;BME280;14738;42.668;23.250;2023-03-14T07:02:59;48402.22;;;-141.90;27.70
5298;BME280;14738;42.668;23.250;2023-03-14T07:05:25;48402.22;;;-141.90;29.36
5298;BME280;14738;42.668;23.250;2023-03-14T07:07:50;48414.13;;;-141.90;29.78
5298;BME280;14738;42.668;23.250;2023-03-14T07:10:16;48410.16;;;-141.90;30.86
5298;BME280;14738;42.668;23.250;2023-03-14T07:12:42;48390.31;;;-141.90;31.22
5298;BME280;14738;42.668;23.250;2023-03-14T07:15:07;48402.22;;;-141.90;31.22
5298;BME280;14738;42.668;23.250;2023-03-14T07:17:33;48420.09;;;-141.90;31.72
5298;BME280;14738;42.668;23.250;2023-03-14T07:19:58;48410.16;;;-141.90;31.27
5298;BME280;14738;42.668;23.250;2023-03-14T07:22:24;48426.03;;;-141.90;31.47
5298;BME280;14738;42.668;23.250;2023-03-14T07:24:50;48430.00;;;-141.90;31.85
5298;BME280;14738;42.668;23.250;2023-03-14T07:27:15;48420.09;;;-141.90;33.38
5298;BME280;14738;42.668;23.250;2023-03-14T07:29:44;48430.00;;;-141.90;32.72
5298;BME280;14738;42.668;23.250;2023-03-14T07:32:09;48430.00;;;-141.90;31.87
5298;BME280;14738;42.668;23.250;2023-03-14T07:34:35;48439.94;;;-141.90;32.72
5298;BME280;14738;42.668;23.250;2023-03-14T07:37:00;48432.00;;;-141.90;33.05
5298;BME280;14738;42.668;23.250;2023-03-14T07:39:26;48432.00;;;-141.90;33.57
5298;BME280;14738;42.668;23.250;2023-03-14T07:41:51;48410.16;;;-141.90;34.44
5298;BME280;14738;42.668;23.250;2023-03-14T07:44:17;48422.06;;;-141.90;33.00
5298;BME280;14738;42.668;23.250;2023-03-14T07:46:42;48380.38;;;-141.90;33.68
5298;BME280;14738;42.668;23.250;2023-03-14T07:49:07;48398.25;;;-141.90;33.64
5298;BME280;14738;42.668;23.250;2023-03-14T07:51:33;48414.13;;;-141.90;34.18
5298;BME280;14738;42.668;23.250;2023-03-14T07:53:58;48432.00;;;-141.90;33.91
5298;BME280;14738;42.668;23.250;2023-03-14T07:56:24;48432.00;;;-141.90;34.25
5298;BME280;14738;42.668;23.250;2023-03-14T07:58:49;48449.84;;;-141.90;33.81
5298;BME280;14738;42.668;23.250;2023-03-14T08:01:14;48420.09;;;-141.90;35.26
5298;BME280;14738;42.668;23.250;2023-03-14T08:03:40;48428.03;;;-141.90;33.95
5298;BME280;14738;42.668;23.250;2023-03-14T08:06:06;48424.06;;;-141.90;34.13
5298;BME280;14738;42.668;23.250;2023-03-14T08:08:31;48433.97;;;-141.90;34.68
5298;BME280;14738;42.668;23.250;2023-03-14T08:11:03;48374.41;;;-141.90;33.75
5298;BME280;14738;42.668;23.250;2023-03-14T08:13:28;48430.00;;;-141.90;33.49
5298;BME280;14738;42.668;23.250;2023-03-14T08:15:54;48406.19;;;-141.90;33.19
5298;BME280;14738;42.668;23.250;2023-03-14T08:18:19;48420.09;;;-141.90;33.47
5298;BME280;14738;42.668;23.250;2023-03-14T08:20:45;48433.97;;;-141.90;33.73
5298;BME280;14738;42.668;23.250;2023-03-14T08:23:10;48430.00;;;-141.90;33.86
5298;BME280;14738;42.668;23.250;2023-03-14T08:25:37;48424.06;;;-141.90;33.83
5298;BME280;14738;42.668;23.250;2023-03-14T08:28:03;48390.31;;;-141.90;35.03
5298;BME280;14738;42.668;23.250;2023-03-14T08:30:29;48426.03;;;-141.90;33.07
5298;BME280;14738;42.668;23.250;2023-03-14T08:32:57;48422.06;;;-141.90;32.08
5298;BME280;14738;42.668;23.250;2023-03-14T08:35:23;48437.94;;;-141.90;32.96
5298;BME280;14738;42.668;23.250;2023-03-14T08:37:49;48410.16;;;-141.90;33.08
5298;BME280;14738;42.668;23.250;2023-03-14T08:40:14;48433.97;;;-141.90;32.19
5298;BME280;14738;42.668;23.250;2023-03-14T08:42:42;48433.97;;;-141.90;32.43
5298;BME280;14738;42.668;23.250;2023-03-14T08:45:09;48420.09;;;-141.90;32.52
5298;BME280;14738;42.668;23.250;2023-03-14T08:47:36;48400.22;;;-141.90;32.04
5298;BME280;14738;42.668;23.250;2023-03-14T08:50:03;48398.25;;;-141.90;31.55
5298;BME280;14738;42.668;23.250;2023-03-14T08:52:29;48428.03;;;-141.90;31.75
5298;BME280;14738;42.668;23.250;2023-03-14T08:54:56;48408.16;;;-141.90;32.81
5298;BME280;14738;42.668;23.250;2023-03-14T08:57:21;48406.19;;;-141.90;31.65
5298;BME280;14738;42.668;23.250;2023-03-14T08:59:47;48430.00;;;-141.90;32.06
5298;BME280;14738;42.668;23.250;2023-03-14T09:02:12;48422.06;;;-141.90;32.10
5298;BME280;14738;42.668;23.250;2023-03-14T09:04:38;48445.88;;;-141.90;30.94
5298;BME280;14738;42.668;23.250;2023-03-14T09:07:03;48441.91;;;-141.90;30.85
5298;BME280;14738;42.668;23.250;2023-03-14T09:09:29;48437.94;;;-141.90;30.84
5298;BME280;14738;42.668;23.250;2023-03-14T09:11:55;48437.94;;;-141.90;30.82
5298;BME280;14738;42.668;23.250;2023-03-14T09:14:21;48410.16;;;-141.90;30.04
5298;BME280;14738;42.668;23.250;2023-03-14T09:16:46;48424.06;;;-141.90;29.94
5298;BME280;14738;42.668;23.250;2023-03-14T09:19:12;48414.13;;;-141.90;29.82
5298;BME280;14738;42.668;23.250;2023-03-14T09:21:37;48426.03;;;-141.90;29.81
5298;BME280;14738;42.668;23.250;2023-03-14T09:24:04;48378.38;;;-141.90;30.07
5298;BME280;14738;42.668;23.250;2023-03-14T09:26:29;48402.22;;;-141.90;29.66
5298;BME280;14738;42.668;23.250;2023-03-14T09:28:55;48406.19;;;-141.90;29.78
5298;BME280;14738;42.668;23.250;2023-03-14T09:31:21;48422.06;;;-141.90;28.65
5298;BME280;14738;42.668;23.250;2023-03-14T09:33:46;48402.22;;;-141.90;28.68
5298;BME280;14738;42.668;23.250;2023-03-14T09:36:12;48390.31;;;-141.90;28.19
5298;BME280;14738;42.668;23.250;2023-03-14T09:38:37;48426.03;;;-141.90;28.15
5298;BME280;14738;42.668;23.250;2023-03-14T09:41:13;48410.16;;;-141.90;28.64
5298;BME280;14738;42.668;23.250;2023-03-14T09:43:41;48412.13;;;-141.90;28.09
5298;BME280;14738;42.668;23.250;2023-03-14T09:46:09;48376.41;;;-141.90;27.39
5298;BME280;14738;42.668;23.250;2023-03-14T09:48:36;48406.19;;;-141.90;26.62
5298;BME280;14738;42.668;23.250;2023-03-14T09:51:05;48422.06;;;-141.90;27.04
5298;BME280;14738;42.668;23.250;2023-03-14T09:53:41;48414.13;;;-141.90;26.71
5298;BME280;14738;42.668;23.250;2023-03-14T09:56:14;48408.16;;;-141.90;26.76
5298;BME280;14738;42.668;23.250;2023-03-14T09:58:44;48422.06;;;-141.90;27.51
5298;BME280;14738;42.668;23.250;2023-03-14T10:01:14;48406.19;;;-141.90;26.52
5298;BME280;14738;42.668;23.250;2023-03-14T10:03:42;48426.03;;;-141.90;26.87
5298;BME280;14738;42.668;23.250;2023-03-14T10:06:14;48398.25;;;-141.90;26.76
5298;BME280;14738;42.668;23.250;2023-03-14T10:08:44;48418.09;;;-141.90;26.16
5298;BME280;14738;42.668;23.250;2023-03-14T10:11:19;48412.13;;;-141.90;26.34
5298;BME280;14738;42.668;23.250;2023-03-14T10:13:53;48414.13;;;-141.90;26.16
5298;BME280;14738;42.668;23.250;2023-03-14T10:16:29;48420.09;;;-141.90;26.18
5298;BME280;14738;42.668;23.250;2023-03-14T10:19:04;48422.06;;;-141.90;25.65
5298;BME280;14738;42.668;23.250;2023-03-14T10:21:36;48412.13;;;-141.90;26.26
5298;BME280;14738;42.668;23.250;2023-03-14T10:24:22;48402.22;;;-141.90;25.68
5298;BME280;14738;42.668;23.250;2023-03-14T10:26:58;48404.19;;;-141.90;26.25
5298;BME280;14738;42.668;23.250;2023-03-14T10:29:24;48410.16;;;-141.90;25.49
5298;BME280;14738;42.668;23.250;2023-03-14T10:32:01;48398.25;;;-141.90;25.22
5298;BME280;14738;42.668;23.250;2023-03-14T10:34:33;48406.19;;;-141.90;24.99
5298;BME280;14738;42.668;23.250;2023-03-14T10:37:17;48426.03;;;-141.90;25.19
5298;BME280;14738;42.668;23.250;2023-03-14T10:39:52;48418.09;;;-141.90;25.58
5298;BME280;14738;42.668;23.250;2023-03-14T10:42:29;48396.25;;;-141.90;25.86
5298;BME280;14738;42.668;23.250;2023-03-14T10:47:54;48396.25;;;-141.90;24.90
5298;BME280;14738;42.668;23.250;2023-03-14T10:50:30;48398.25;;;-141.90;24.92
5298;BME280;14738;42.668;23.250;2023-03-14T10:52:57;48398.25;;;-141.90;25.37
5298;BME280;14738;42.668;23.250;2023-03-14T10:55:26;48414.13;;;-141.90;24.69
5298;BME280;14738;42.668;23.250;2023-03-14T10:57:51;48422.06;;;-141.90;24.49
5298;BME280;14738;42.668;23.250;2023-03-14T11:00:19;48410.16;;;-141.90;25.52
5298;BME280;14738;42.668;23.250;2023-03-14T11:08:49;48412.13;;;-141.90;25.01
5298;BME280;14738;42.668;23.250;2023-03-14T11:11:29;48406.19;;;-141.90;24.90
5298;BME280;14738;42.668;23.250;2023-03-14T11:16:53;48420.09;;;-141.90;24.64
5298;BME280;14738;42.668;23.250;2023-03-14T11:22:27;48443.91;;;-141.90;24.09
5298;BME280;14738;42.668;23.250;2023-03-14T11:28:09;48426.03;;;-141.90;24.80
5298;BME280;14738;42.668;23.250;2023-03-14T11:31:03;48410.16;;;-141.90;24.49
5298;BME280;14738;42.668;23.250;2023-03-14T11:33:37;48410.16;;;-141.90;24.46
5298;BME280;14738;42.668;23.250;2023-03-14T11:36:12;48400.22;;;-141.90;24.60
5298;BME280;14738;42.668;23.250;2023-03-14T11:38:52;48432.00;;;-141.90;24.49
5298;BME280;14738;42.668;23.250;2023-03-14T11:43:55;48394.28;;;-141.90;24.99
5298;BME280;14738;42.668;23.250;2023-03-14T11:46:34;48394.28;;;-141.90;25.20
5298;BME280;14738;42.668;23.250;2023-03-14T11:49:34;48398.25;;;-141.90;24.42
5298;BME280;14738;42.668;23.250;2023-03-14T11:52:31;48390.31;;;-141.90;24.91
5298;BME280;14738;42.668;23.250;2023-03-14T11:55:15;48424.06;;;-141.90;24.76
5298;BME280;14738;42.668;23.250;2023-03-14T11:57:43;48422.06;;;-141.90;25.17
5298;BME280;14738;42.668;23.250;2023-03-14T12:14:44;48400.22;;;-141.90;25.00
5298;BME280;14738;42.668;23.250;2023-03-14T12:17:17;48392.28;;;-141.90;24.51
5298;BME280;14738;42.668;23.250;2023-03-14T12:19:44;48398.25;;;-141.90;24.04
5298;BME280;14738;42.668;23.250;2023-03-14T12:22:27;48410.16;;;-141.90;25.01
5298;BME280;14738;42.668;23.250;2023-03-14T12:24:58;48424.06;;;-141.90;24.89
5298;BME280;14738;42.668;23.250;2023-03-14T12:35:46;48428.03;;;-141.90;23.99
5298;BME280;14738;42.668;23.250;2023-03-14T12:41:20;48410.16;;;-141.90;24.07
5298;BME280;14738;42.668;23.250;2023-03-14T12:43:48;48402.22;;;-141.90;23.66
5298;BME280;14738;42.668;23.250;2023-03-14T12:48:44;48430.00;;;-141.90;23.13
5298;BME280;14738;42.668;23.250;2023-03-14T12:51:18;48433.97;;;-141.90;23.54
5298;BME280;14738;42.668;23.250;2023-03-14T12:59:34;48398.25;;;-141.90;23.59
5298;BME280;14738;42.668;23.250;2023-03-14T13:04:37;48426.03;;;-141.90;23.33
5298;BME280;14738;42.668;23.250;2023-03-14T13:10:30;48396.25;;;-141.90;22.24
5298;BME280;14738;42.668;23.250;2023-03-14T13:15:32;48428.03;;;-141.90;23.04
5298;BME280;14738;42.668;23.250;2023-03-14T13:18:02;48469.72;;;-141.90;22.83
5298;BME280;14738;42.668;23.250;2023-03-14T13:20:33;48430.00;;;-141.90;22.15
5298;BME280;14738;42.668;23.250;2023-03-14T13:22:59;48428.03;;;-141.90;22.45
5298;BME280;14738;42.668;23.250;2023-03-14T13:25:29;48443.91;;;-141.90;22.27
5298;BME280;14738;42.668;23.250;2023-03-14T13:27:55;48414.13;;;-141.90;22.38
5298;BME280;14738;42.668;23.250;2023-03-14T13:30:39;48433.97;;;-141.90;22.97
5298;BME280;14738;42.668;23.250;2023-03-14T13:33:05;48400.22;;;-141.90;22.78
5298;BME280;14738;42.668;23.250;2023-03-14T13:35:40;48422.06;;;-141.90;22.29
5298;BME280;14738;42.668;23.250;2023-03-14T13:38:15;48437.94;;;-141.90;22.72
5298;BME280;14738;42.668;23.250;2023-03-14T13:40:43;48378.38;;;-141.90;22.52
5298;BME280;14738;42.668;23.250;2023-03-14T13:45:53;48402.22;;;-141.90;21.88
5298;BME280;14738;42.668;23.250;2023-03-14T13:48:21;48408.16;;;-141.90;21.70
5298;BME280;14738;42.668;23.250;2023-03-14T13:51:00;48418.09;;;-141.90;22.03
5298;BME280;14738;42.668;23.250;2023-03-14T13:53:27;48402.22;;;-141.90;21.78
5298;BME280;14738;42.668;23.250;2023-03-14T13:55:53;48402.22;;;-141.90;21.66
5298;BME280;14738;42.668;23.250;2023-03-14T13:58:22;48447.88;;;-141.90;21.86
5298;BME280;14738;42.668;23.250;2023-03-14T14:01:04;48430.00;;;-141.90;21.70
5298;BME280;14738;42.668;23.250;2023-03-14T14:03:32;48426.03;;;-141.90;21.64